Strona główna
METAR-TAF:

METAR-TAF

Lotnisko :

Mountain Empire Airport

Marion / Wytheville, Wirginia, Stany Zjednoczone

Szerokość geograficzna: 36-54N, Długość geograficzna: 081-21W, wysokość: 780 m

Aktualna obserwacja pogody

Raport powstał 22 minut temu, godzina 12:55 UTC
Wiatr 9 kt od wschód
Temperatura 3°C
Wilgotność 48%
Ciśnienie 1027 hPa
Widzialność: 16.1 km
Przerywane chmury na wysokości 4100 ft
Zachmurzenie całkowite na wysokości 4700 ft

METAR: KMKJ 181255Z AUTO 09009KT 10SM BKN041 OVC047 03/M07 A3033 RMK AO2 T00251067

czas: 08:17 (13:17 UTC)


TAF: brakujący

Obserwacja i prognoza pogody dla ponad 4000 lotnisk (raport METAR i TAF).

Dostępne stacje oznaczono żółtymi i czerwonymi punktami na mapie.

Najedź kursorem aby zobaczyć nazwę stacji.

Kliknij aby zobaczyć obserwacje i prognozy pogody.

Aby zmienić mapę: kliknij na zielony przycisk z czarnym krzyżykiem, aby powiększyć; na zielony przycisk z myślnikiem, aby pomniejszyć; na zielone strzałki, aby przejść do map sąsiednich.


METAR-TAF: